Terminal Aerodrome Forecast
Issued by NWS

Home | Current Version | Previous Version | Text Only | Print | Product List | Glossary On
Versions: 1 2 3 4 5 6 7 8 9 10 11 12 13 14 15 16 17 18 19 20 21 22 23 24 25 26 27 28 29 30 31 32 33 34 35 36 37 38 39 40 41 42
000
FTUS45 KBOU 300243 AAA
TAFBJC
TAF AMD
KBJC 300243Z 3003/3024 16006KT P6SM FEW100 SCT150
     FM300700 VRB05KT P6SM FEW080 SCT100 BKN150
     FM301300 24006KT P6SM SCT070 BKN090 BKN120
     FM301600 28006KT P6SM SCT070 BKN090 BKN110
     FM302100 34008KT P6SM SCT060 BKN080 OVC100
      TEMPO 3022/3024 SCT045 BKN060=

USA.gov is the U.S. government's official web portal to all federal, state and local government web resources and services.